createdAt,value
2022-11-01T00:01:07.085Z,12.07
2022-11-01T00:03:33.649Z,11.00
2022-11-01T00:06:00.060Z,11.07
2022-11-01T00:08:26.485Z,11.38
2022-11-01T00:10:52.867Z,11.43
2022-11-01T00:13:19.207Z,10.98
2022-11-01T00:15:45.546Z,10.60
2022-11-01T00:18:11.934Z,12.00
2022-11-01T00:20:38.517Z,11.15
2022-11-01T00:23:05.172Z,10.60
2022-11-01T00:25:32.710Z,10.85
2022-11-01T00:27:59.273Z,11.57
2022-11-01T00:30:26.193Z,11.37
2022-11-01T00:32:52.626Z,10.18
2022-11-01T00:35:18.977Z,10.48
2022-11-01T00:37:45.315Z,10.82
2022-11-01T00:40:12.091Z,10.73
2022-11-01T00:42:38.432Z,10.20
2022-11-01T00:45:05.376Z,9.90
2022-11-01T00:47:31.892Z,9.63
2022-11-01T00:49:58.269Z,9.77
2022-11-01T00:52:24.691Z,8.95
2022-11-01T00:54:51.046Z,9.83
2022-11-01T00:57:17.545Z,9.43
2022-11-01T00:59:44.272Z,10.02
2022-11-01T01:02:10.798Z,8.77
2022-11-01T01:04:41.511Z,8.30
2022-11-01T01:07:07.977Z,8.93
2022-11-01T01:09:34.356Z,8.55
2022-11-01T01:12:01.765Z,7.95
2022-11-01T01:14:32.246Z,8.18
2022-11-01T01:16:59.145Z,8.52
2022-11-01T01:19:25.565Z,7.70
2022-11-01T01:21:51.994Z,8.23
2022-11-01T01:24:18.711Z,7.80
2022-11-01T01:26:45.043Z,7.88
2022-11-01T01:29:11.562Z,7.78
2022-11-01T01:31:38.309Z,7.37
2022-11-01T01:34:04.787Z,7.68
2022-11-01T01:36:31.140Z,7.68
2022-11-01T01:38:57.506Z,8.05
2022-11-01T01:41:42.454Z,8.32
2022-11-01T01:44:45.939Z,7.40
2022-11-01T01:47:21.265Z,7.15
2022-11-01T01:49:50.855Z,7.53
2022-11-01T01:52:18.398Z,7.70
2022-11-01T01:54:45.358Z,7.70
2022-11-01T01:57:12.446Z,7.80
2022-11-01T01:59:40.235Z,7.35
2022-11-01T02:02:07.104Z,7.10
2022-11-01T02:04:49.332Z,7.03
2022-11-01T02:07:15.666Z,7.75
2022-11-01T02:09:43.107Z,7.60
2022-11-01T02:12:12.434Z,7.38
2022-11-01T02:14:42.179Z,7.03
2022-11-01T02:17:23.861Z,6.78
2022-11-01T02:20:02.293Z,7.28
2022-11-01T02:23:06.174Z,7.30
2022-11-01T02:25:51.286Z,6.65
2022-11-01T02:28:32.850Z,6.53
2022-11-01T02:31:05.235Z,6.22
2022-11-01T02:33:42.932Z,6.13
2022-11-01T02:36:19.482Z,7.03
2022-11-01T02:38:51.154Z,7.00
2022-11-01T02:41:30.674Z,6.65
2022-11-01T02:43:59.826Z,6.55
2022-11-01T02:46:48.899Z,6.93
2022-11-01T02:49:18.089Z,7.30
2022-11-01T02:51:45.981Z,6.72
2022-11-01T02:54:21.997Z,7.15
2022-11-01T02:56:50.234Z,7.13
2022-11-01T02:59:28.382Z,6.93
2022-11-01T03:02:10.277Z,6.23
2022-11-01T03:04:37.194Z,6.95
2022-11-01T03:07:07.810Z,6.68
2022-11-01T03:09:35.529Z,6.88
2022-11-01T03:12:06.864Z,6.22
2022-11-01T03:14:49.120Z,6.20
2022-11-01T03:17:39.518Z,6.50
2022-11-01T03:20:12.846Z,6.20
2022-11-01T03:23:05.613Z,6.32
2022-11-01T03:25:39.948Z,6.00
2022-11-01T03:28:17.368Z,6.43
2022-11-01T03:30:50.209Z,6.60
2022-11-01T03:33:18.479Z,6.80
2022-11-01T03:35:48.907Z,5.85
2022-11-01T03:38:19.206Z,6.13
2022-11-01T03:40:53.648Z,6.30
2022-11-01T03:43:22.858Z,6.25
2022-11-01T03:45:49.301Z,5.90
2022-11-01T03:48:15.829Z,5.88
2022-11-01T03:50:47.725Z,6.20
2022-11-01T03:53:14.967Z,5.67
2022-11-01T03:55:41.379Z,5.97
2022-11-01T03:58:07.817Z,5.60
2022-11-01T04:00:37.962Z,6.20
2022-11-01T04:03:05.249Z,5.97
2022-11-01T04:05:33.475Z,5.90
2022-11-01T04:07:59.962Z,5.88
2022-11-01T04:10:29.050Z,5.88
2022-11-01T04:12:56.021Z,5.18
2022-11-01T04:15:42.374Z,5.40
2022-11-01T04:18:30.328Z,5.67
2022-11-01T04:20:56.805Z,5.53
2022-11-01T04:23:23.222Z,5.40
2022-11-01T04:25:49.773Z,5.50
2022-11-01T04:28:16.661Z,5.60
2022-11-01T04:30:43.857Z,5.47
2022-11-01T04:33:10.406Z,5.13
2022-11-01T04:35:38.139Z,5.30
2022-11-01T04:38:05.664Z,5.40
2022-11-01T04:40:34.050Z,5.45
2022-11-01T04:43:00.722Z,5.40
2022-11-01T04:45:27.329Z,5.22
2022-11-01T04:48:06.482Z,5.72
2022-11-01T04:50:33.943Z,5.40
2022-11-01T04:53:01.050Z,5.60
2022-11-01T04:55:28.340Z,5.73
2022-11-01T04:57:54.695Z,5.20
2022-11-01T05:00:23.042Z,5.50
2022-11-01T05:02:50.087Z,5.28
2022-11-01T05:05:17.108Z,5.13
2022-11-01T05:07:43.468Z,5.13
2022-11-01T05:10:10.558Z,4.80
2022-11-01T05:12:37.012Z,5.68
2022-11-01T05:15:04.690Z,4.80
2022-11-01T05:17:31.077Z,5.10
2022-11-01T05:19:57.490Z,5.43
2022-11-01T05:22:23.859Z,5.40
2022-11-01T05:24:50.248Z,4.95
2022-11-01T05:27:16.630Z,5.55
2022-11-01T05:29:42.980Z,5.28
2022-11-01T05:32:09.482Z,5.30
2022-11-01T05:34:35.829Z,5.45
2022-11-01T05:37:02.196Z,4.80
2022-11-01T05:39:28.581Z,4.78
2022-11-01T05:41:56.971Z,4.88
2022-11-01T05:44:26.417Z,4.93
2022-11-01T05:46:52.822Z,4.50
2022-11-01T05:49:19.169Z,4.53
2022-11-01T05:51:45.521Z,4.22
2022-11-01T05:54:11.878Z,4.10
2022-11-01T05:56:38.609Z,3.67
2022-11-01T05:59:04.955Z,4.35
2022-11-01T06:01:31.477Z,5.05
2022-11-01T06:04:01.839Z,4.47
2022-11-01T06:06:29.532Z,4.50
2022-11-01T06:08:57.649Z,4.03
2022-11-01T06:11:25.001Z,4.13
2022-11-01T06:13:59.210Z,4.00
2022-11-01T06:16:26.561Z,3.72
2022-11-01T06:18:53.896Z,3.50
2022-11-01T06:21:26.092Z,3.43
2022-11-01T06:23:55.660Z,3.88
2022-11-01T06:26:22.049Z,3.80
2022-11-01T06:28:48.395Z,3.92
2022-11-01T06:31:14.833Z,2.08
2022-11-01T06:33:41.314Z,1.50
2022-11-01T06:36:07.848Z,1.35
2022-11-01T06:38:34.478Z,1.40
2022-11-01T06:41:00.999Z,1.20
2022-11-01T06:43:27.619Z,1.10
2022-11-01T06:45:54.233Z,1.00
2022-11-01T06:48:20.625Z,1.15
2022-11-01T06:50:46.975Z,0.90
2022-11-01T06:53:13.320Z,0.95
2022-11-01T06:55:39.676Z,0.90
2022-11-01T06:58:06.446Z,1.07
2022-11-01T07:00:33.180Z,1.10
2022-11-01T07:03:00.624Z,0.95
2022-11-01T07:05:30.329Z,1.10
2022-11-01T07:08:00.826Z,1.10
2022-11-01T07:10:28.008Z,1.40
2022-11-01T07:13:02.486Z,1.35
2022-11-01T07:15:29.488Z,1.23
2022-11-01T07:18:00.810Z,1.20
2022-11-01T07:20:29.860Z,1.05
2022-11-01T07:23:01.777Z,1.20
2022-11-01T07:25:29.565Z,0.77
2022-11-01T07:27:56.769Z,0.77
2022-11-01T07:30:23.398Z,0.80
2022-11-01T07:32:55.358Z,0.70
2022-11-01T07:35:21.898Z,0.97
2022-11-01T07:37:48.254Z,0.70
2022-11-01T07:40:14.771Z,0.90
2022-11-01T07:42:45.506Z,0.63
2022-11-01T07:45:13.453Z,0.60
2022-11-01T07:47:40.076Z,0.83
2022-11-01T07:50:07.200Z,0.75
2022-11-01T07:52:33.746Z,0.80
2022-11-01T07:55:00.260Z,0.60
2022-11-01T07:57:26.768Z,0.80
2022-11-01T07:59:53.160Z,0.60
2022-11-01T08:02:19.634Z,0.60
2022-11-01T08:04:46.057Z,0.90
2022-11-01T08:07:13.487Z,0.90
2022-11-01T08:09:39.989Z,0.88
2022-11-01T08:12:06.796Z,0.80
2022-11-01T08:14:33.144Z,0.70
2022-11-01T08:17:01.588Z,0.63
2022-11-01T08:19:28.084Z,0.90
2022-11-01T08:21:57.803Z,0.75
2022-11-01T08:24:24.180Z,0.80
2022-11-01T08:26:52.399Z,0.65
2022-11-01T08:29:19.084Z,0.70
2022-11-01T08:31:46.823Z,1.00
2022-11-01T08:34:17.072Z,0.98
2022-11-01T08:36:43.676Z,1.03
2022-11-01T08:41:41.510Z,1.00
2022-11-01T08:44:07.968Z,1.02
2022-11-01T08:46:34.317Z,1.23
2022-11-01T08:49:00.666Z,1.03
2022-11-01T08:51:27.861Z,1.20
2022-11-01T08:53:58.053Z,1.13
2022-11-01T08:56:25.043Z,1.20
2022-11-01T08:58:51.951Z,1.02
2022-11-01T09:01:19.349Z,1.03
2022-11-01T09:03:45.949Z,1.60
2022-11-01T09:06:12.697Z,1.52
2022-11-01T09:08:39.054Z,1.90
2022-11-01T09:11:06.341Z,1.23
2022-11-01T09:13:34.143Z,1.50
2022-11-01T09:16:05.453Z,1.10
2022-11-01T09:18:32.223Z,1.48
2022-11-01T09:20:58.650Z,1.10
2022-11-01T09:23:24.995Z,1.45
2022-11-01T09:25:51.408Z,1.10
2022-11-01T09:28:17.811Z,1.40
2022-11-01T09:30:49.998Z,1.40
2022-11-01T09:33:23.580Z,1.52
2022-11-01T09:35:55.386Z,1.70
2022-11-01T09:38:25.092Z,1.60
2022-11-01T09:40:57.370Z,1.15
2022-11-01T09:43:26.640Z,1.52
2022-11-01T09:45:59.007Z,2.03
2022-11-01T09:48:28.446Z,1.33
2022-11-01T09:50:55.231Z,1.30
2022-11-01T09:53:25.470Z,1.50
2022-11-01T09:56:06.025Z,1.40
2022-11-01T09:59:04.443Z,1.48
2022-11-01T10:01:52.605Z,1.35
2022-11-01T10:04:48.429Z,1.43
2022-11-01T10:07:45.786Z,1.50
2022-11-01T10:10:37.051Z,1.23
2022-11-01T10:13:45.035Z,1.77
2022-11-01T10:16:28.807Z,1.40
2022-11-01T10:19:15.110Z,1.37
2022-11-01T10:21:48.495Z,1.63
2022-11-01T10:24:26.251Z,1.90
2022-11-01T10:27:01.410Z,1.67
2022-11-01T10:29:42.150Z,1.73
2022-11-01T10:32:33.523Z,1.80
2022-11-01T10:35:06.801Z,1.50
2022-11-01T10:38:18.604Z,1.50
2022-11-01T10:40:55.184Z,1.42
2022-11-01T10:43:22.660Z,1.40
2022-11-01T10:45:55.203Z,1.60
2022-11-01T10:48:31.858Z,1.55
2022-11-01T10:51:01.156Z,1.40
2022-11-01T10:53:36.088Z,1.50
2022-11-01T10:56:08.957Z,1.60
2022-11-01T10:58:47.178Z,1.60
2022-11-01T11:01:19.175Z,1.48
2022-11-01T11:03:47.422Z,1.75
2022-11-01T11:06:15.531Z,1.55
2022-11-01T11:08:44.683Z,1.38
2022-11-01T11:11:15.302Z,1.77
2022-11-01T11:13:54.617Z,1.45
2022-11-01T11:16:32.479Z,1.80
2022-11-01T11:19:19.399Z,1.40
2022-11-01T11:21:50.797Z,1.50
2022-11-01T11:24:24.364Z,1.30
2022-11-01T11:26:54.668Z,1.63
2022-11-01T11:29:27.186Z,1.83
2022-11-01T11:31:59.485Z,1.35
2022-11-01T11:34:32.290Z,1.63
2022-11-01T11:37:00.681Z,1.73
2022-11-01T11:39:32.651Z,1.70
2022-11-01T11:42:19.994Z,1.38
2022-11-01T11:44:51.970Z,1.65
2022-11-01T11:47:26.717Z,1.60
2022-11-01T11:49:54.223Z,1.40
2022-11-01T11:52:28.316Z,1.75
2022-11-01T11:54:55.210Z,1.40
2022-11-01T11:57:27.271Z,1.58
2022-11-01T11:59:57.094Z,1.60
2022-11-01T12:02:28.093Z,1.70
2022-11-01T12:04:58.917Z,1.50
2022-11-01T12:07:35.055Z,1.63
2022-11-01T12:10:04.371Z,1.70
2022-11-01T12:12:34.649Z,1.40
2022-11-01T12:15:03.858Z,1.70
2022-11-01T12:17:45.409Z,1.33
2022-11-01T12:20:20.499Z,1.50
2022-11-01T12:22:59.885Z,1.70
2022-11-01T12:25:26.530Z,1.30
2022-11-01T12:28:00.107Z,2.03
2022-11-01T12:30:31.016Z,1.35
2022-11-01T12:33:02.463Z,1.42
2022-11-01T12:35:42.732Z,1.20
2022-11-01T12:38:33.974Z,1.52
2022-11-01T12:41:13.146Z,1.97
2022-11-01T12:43:49.125Z,1.80
2022-11-01T12:46:22.674Z,1.60
2022-11-01T12:49:01.475Z,1.60
2022-11-01T12:51:31.361Z,1.38
2022-11-01T12:54:09.581Z,1.50
2022-11-01T12:56:35.946Z,1.42
2022-11-01T12:59:02.435Z,1.85
2022-11-01T13:01:56.128Z,1.63
2022-11-01T13:04:42.328Z,1.15
2022-11-01T13:07:43.518Z,1.37
2022-11-01T13:10:43.740Z,1.23
2022-11-01T13:13:25.456Z,1.55
2022-11-01T13:15:58.582Z,1.30
2022-11-01T13:18:52.142Z,1.30
2022-11-01T13:21:30.656Z,0.93
2022-11-01T13:24:19.391Z,1.52
2022-11-01T13:26:51.300Z,1.30
2022-11-01T13:29:29.391Z,0.93
2022-11-01T13:32:07.234Z,1.20
2022-11-01T13:35:10.886Z,0.87
2022-11-01T13:37:49.632Z,1.33
2022-11-01T13:40:18.728Z,0.85
2022-11-01T13:42:55.607Z,1.10
2022-11-01T13:45:34.087Z,1.17
2022-11-01T13:48:26.148Z,11.23
2022-11-01T13:51:10.803Z,2.50
2022-11-01T13:53:45.446Z,2.55
2022-11-01T13:56:30.718Z,1.40
2022-11-01T13:58:58.535Z,1.10
2022-11-01T14:01:37.182Z,1.47
2022-11-01T14:04:18.871Z,1.20
2022-11-01T14:07:10.747Z,1.38
2022-11-01T14:09:45.952Z,1.10
2022-11-01T14:12:31.927Z,0.77
2022-11-01T14:15:19.924Z,0.90
2022-11-01T14:17:52.660Z,1.20
2022-11-01T14:20:18.993Z,1.17
2022-11-01T14:22:45.426Z,1.00
2022-11-01T14:25:14.937Z,1.00
2022-11-01T14:27:50.621Z,1.00
2022-11-01T14:30:23.806Z,1.33
2022-11-01T14:32:57.048Z,0.98
2022-11-01T14:35:23.430Z,1.00
2022-11-01T14:37:57.236Z,1.00
2022-11-01T14:40:34.113Z,1.10
2022-11-01T14:43:11.347Z,1.20
2022-11-01T14:45:44.461Z,1.23
2022-11-01T14:48:17.393Z,1.30
2022-11-01T14:50:59.257Z,0.77
2022-11-01T14:53:26.385Z,1.80
2022-11-01T14:56:24.504Z,2.92
2022-11-01T14:58:50.864Z,1.00
2022-11-01T15:01:20.690Z,0.90
2022-11-01T15:03:54.204Z,1.27
2022-11-01T15:06:27.363Z,1.03
2022-11-01T15:08:58.567Z,0.80
2022-11-01T15:11:33.951Z,1.00
2022-11-01T15:14:05.743Z,1.25
2022-11-01T15:16:35.377Z,0.80
2022-11-01T15:19:27.897Z,0.97
2022-11-01T15:22:01.029Z,1.10
2022-11-01T15:24:27.435Z,0.95
2022-11-01T15:26:54.248Z,1.00
2022-11-01T15:29:24.908Z,0.90
2022-11-01T15:31:58.030Z,1.23
2022-11-01T15:34:27.025Z,0.70
2022-11-01T15:36:54.120Z,1.13
2022-11-01T15:39:26.382Z,0.82
2022-11-01T15:41:56.881Z,0.82
2022-11-01T15:44:29.724Z,0.83
2022-11-01T15:47:01.567Z,0.90
2022-11-01T15:49:59.902Z,0.80
2022-11-01T15:52:32.278Z,1.67
2022-11-01T15:55:24.103Z,0.90
2022-11-01T15:58:06.813Z,0.93
2022-11-01T16:00:46.882Z,1.00
2022-11-01T16:03:29.064Z,0.90
2022-11-01T16:05:59.928Z,1.00
2022-11-01T16:08:40.101Z,1.00
2022-11-01T16:11:07.425Z,1.10
2022-11-01T16:13:34.125Z,0.90
2022-11-01T16:16:13.037Z,0.70
2022-11-01T16:18:43.358Z,0.90
2022-11-01T16:21:19.114Z,0.90
2022-11-01T16:23:57.261Z,0.90
2022-11-01T16:26:23.613Z,0.98
2022-11-01T16:28:51.793Z,0.85
2022-11-01T16:31:24.245Z,1.20
2022-11-01T16:33:50.603Z,0.93
2022-11-01T16:36:19.997Z,0.93
2022-11-01T16:38:51.957Z,0.70
2022-11-01T16:41:29.125Z,1.15
2022-11-01T16:43:57.755Z,0.90
2022-11-01T16:46:26.545Z,0.95
2022-11-01T16:48:54.335Z,1.10
2022-11-01T16:51:24.429Z,2.03
2022-11-01T16:53:51.106Z,1.38
2022-11-01T16:56:42.522Z,2.38
2022-11-01T16:59:17.902Z,1.13
2022-11-01T17:01:45.858Z,1.20
2022-11-01T17:04:13.446Z,1.10
2022-11-01T17:06:39.798Z,1.50
2022-11-01T17:09:14.110Z,1.20
2022-11-01T17:11:42.306Z,1.75
2022-11-01T17:14:10.370Z,1.20
2022-11-01T17:16:38.361Z,1.17
2022-11-01T17:19:05.777Z,1.25
2022-11-01T17:21:37.288Z,1.10
2022-11-01T17:24:04.714Z,1.40
2022-11-01T17:26:31.209Z,1.13
2022-11-01T17:28:57.557Z,1.33
2022-11-01T17:31:24.186Z,1.10
2022-11-01T17:33:50.524Z,1.13
2022-11-01T17:36:17.790Z,1.00
2022-11-01T17:38:44.970Z,1.07
2022-11-01T17:41:16.763Z,0.77
2022-11-01T17:43:43.514Z,0.90
2022-11-01T17:46:14.491Z,1.13
2022-11-01T17:48:40.906Z,0.80
2022-11-01T17:51:07.281Z,1.00
2022-11-01T17:53:34.713Z,0.90
2022-11-01T17:56:01.061Z,0.80
2022-11-01T17:58:27.453Z,0.93
2022-11-01T18:00:53.878Z,1.00
2022-11-01T18:03:20.281Z,1.20
2022-11-01T18:05:46.632Z,1.00
2022-11-01T18:08:19.569Z,0.90
2022-11-01T18:11:10.690Z,0.95
2022-11-01T18:13:46.178Z,1.05
2022-11-01T18:16:34.522Z,0.97
2022-11-01T18:19:25.851Z,0.93
2022-11-01T18:22:09.603Z,0.90
2022-11-01T18:24:43.714Z,1.05
2022-11-01T18:27:11.377Z,0.80
2022-11-01T18:29:40.498Z,1.17
2022-11-01T18:32:16.665Z,1.10
2022-11-01T18:34:51.804Z,0.90
2022-11-01T18:37:44.901Z,1.30
2022-11-01T18:40:24.544Z,1.10
2022-11-01T18:42:55.012Z,1.20
2022-11-01T18:45:30.960Z,1.13
2022-11-01T18:48:11.113Z,0.77
2022-11-01T18:50:38.505Z,0.93
2022-11-01T18:53:17.789Z,1.00
2022-11-01T18:55:47.471Z,0.80
2022-11-01T18:58:28.798Z,1.30
2022-11-01T19:01:15.995Z,1.13
2022-11-01T19:03:42.746Z,1.00
2022-11-01T19:06:20.683Z,1.20
2022-11-01T19:08:57.333Z,1.10
2022-11-01T19:11:28.262Z,1.23
2022-11-01T19:13:59.351Z,0.98
2022-11-01T19:16:26.000Z,1.00
2022-11-01T19:18:52.490Z,1.10
2022-11-01T19:21:20.784Z,1.10
2022-11-01T19:23:50.001Z,0.90
2022-11-01T19:26:22.333Z,1.10
2022-11-01T19:28:52.242Z,0.93
2022-11-01T19:31:28.574Z,1.23
2022-11-01T19:33:58.845Z,1.07
2022-11-01T19:36:35.138Z,1.20
2022-11-01T19:39:02.412Z,0.88
2022-11-01T19:41:33.757Z,0.93
2022-11-01T19:44:12.428Z,1.08
2022-11-01T19:46:38.764Z,0.93
2022-11-01T19:49:19.717Z,1.00
2022-11-01T19:51:46.186Z,1.10
2022-11-01T19:54:12.643Z,1.30
2022-11-01T19:56:39.606Z,1.05
2022-11-01T19:59:12.213Z,1.00
2022-11-01T20:01:45.232Z,1.27
2022-11-01T20:04:28.877Z,0.90
2022-11-01T20:06:57.526Z,1.10
2022-11-01T20:09:27.331Z,1.00
2022-11-01T20:11:54.026Z,1.23
2022-11-01T20:14:20.734Z,1.13
2022-11-01T20:16:47.077Z,1.08
2022-11-01T20:19:16.532Z,1.17
2022-11-01T20:21:44.932Z,1.23
2022-11-01T20:24:11.525Z,1.00
2022-11-01T20:26:38.052Z,1.00
2022-11-01T20:29:04.463Z,1.30
2022-11-01T20:31:31.188Z,1.35
2022-11-01T20:33:58.196Z,1.40
2022-11-01T20:36:24.624Z,1.10
2022-11-01T20:38:51.023Z,1.05
2022-11-01T20:41:19.024Z,1.35
2022-11-01T20:43:45.522Z,1.23
2022-11-01T20:46:12.387Z,1.20
2022-11-01T20:48:38.802Z,1.33
2022-11-01T20:51:06.137Z,1.30
2022-11-01T20:53:33.452Z,0.98
2022-11-01T20:56:00.078Z,1.27
2022-11-01T20:58:26.985Z,1.52
2022-11-01T21:00:53.584Z,1.30
2022-11-01T21:03:22.047Z,1.25
2022-11-01T21:05:49.499Z,1.10
2022-11-01T21:08:23.941Z,1.20
2022-11-01T21:11:02.015Z,1.40
2022-11-01T21:13:45.171Z,1.13
2022-11-01T21:16:28.362Z,1.30
2022-11-01T21:19:04.869Z,1.17
2022-11-01T21:21:32.523Z,1.55
2022-11-01T21:23:59.978Z,1.33
2022-11-01T21:26:31.783Z,1.43
2022-11-01T21:29:02.394Z,1.38
2022-11-01T21:31:33.425Z,1.55
2022-11-01T21:34:11.765Z,1.27
2022-11-01T21:36:42.797Z,1.20
2022-11-01T21:39:23.883Z,1.20
2022-11-01T21:41:53.988Z,1.10
2022-11-01T21:44:23.312Z,1.40
2022-11-01T21:46:53.418Z,1.58
2022-11-01T21:49:22.818Z,1.27
2022-11-01T21:51:49.155Z,1.63
2022-11-01T21:54:15.604Z,1.67
2022-11-01T21:56:42.221Z,1.00
2022-11-01T21:59:08.618Z,1.40
2022-11-01T22:01:35.169Z,1.40
2022-11-01T22:04:02.355Z,1.70
2022-11-01T22:06:28.739Z,1.20
2022-11-01T22:08:55.096Z,1.58
2022-11-01T22:11:23.734Z,1.90
2022-11-01T22:13:50.438Z,1.52
2022-11-01T22:16:16.801Z,1.40
2022-11-01T22:18:43.142Z,1.23
2022-11-01T22:21:09.513Z,1.23
2022-11-01T22:23:35.886Z,1.00
2022-11-01T22:26:02.231Z,1.35
2022-11-01T22:28:28.575Z,1.10
2022-11-01T22:30:54.930Z,1.40
2022-11-01T22:33:21.293Z,1.35
2022-11-01T22:35:47.634Z,2.03
2022-11-01T22:38:18.843Z,1.33
2022-11-01T22:40:50.364Z,1.33
2022-11-01T22:43:18.839Z,0.95
2022-11-01T22:45:45.306Z,1.40
2022-11-01T22:48:17.298Z,1.48
2022-11-01T22:50:43.968Z,1.25
2022-11-01T22:53:16.374Z,1.37
2022-11-01T22:55:44.364Z,2.70
2022-11-01T22:58:29.305Z,1.70
2022-11-01T23:00:58.438Z,1.92
2022-11-01T23:03:31.744Z,1.40
2022-11-01T23:06:00.238Z,1.53
2022-11-01T23:08:28.154Z,1.65
2022-11-01T23:10:55.337Z,1.67
2022-11-01T23:13:58.403Z,1.52
2022-11-01T23:16:28.359Z,1.33
2022-11-01T23:18:59.821Z,1.10
2022-11-01T23:21:27.309Z,1.08
2022-11-01T23:23:54.279Z,1.33
2022-11-01T23:26:22.516Z,1.50
2022-11-01T23:28:51.502Z,1.40
2022-11-01T23:31:18.224Z,1.20
2022-11-01T23:33:49.260Z,1.58
2022-11-01T23:36:27.564Z,1.17
2022-11-01T23:39:01.647Z,1.30
2022-11-01T23:41:32.354Z,1.35
2022-11-01T23:44:01.438Z,1.50
2022-11-01T23:46:27.972Z,1.30
2022-11-01T23:49:01.058Z,1.52
2022-11-01T23:51:28.574Z,1.73
2022-11-01T23:53:56.019Z,1.65
2022-11-01T23:56:22.798Z,1.60
2022-11-01T23:59:15.659Z,1.50
